• Join FlightAware (Why Join?)
  • Login
  • US Flag 
02:24AM EDT


 

Airport Tracker/Info


-or-


 

Live Flight TrackerFlight Track Log ✈ UAL1177 ✈ 28-Apr-2013 ✈ KLAX - KORD

Flight Track Log - Related Links

Times and Time Zones

All times are in EDT time to prevent confusion due to time zone crossing. See the UAL1177 flight status page for this flight to view local times or setup timezone preferences in your user account.

Time Position Orientation Groundspeed Altitude Reporting Facility
EDT Latitude Longitude Course Direction KTS MPH feet Rate Location/Type
02:20AM 33.9328 -118.4475 90° East 177 204 1,500  Level Los Angeles Center
02:21AM 33.8911 -118.5117 232° Southwest 241 277 3,500 1,980 Climbing Los Angeles Center
02:22AM 33.7729 -118.6306 132° Southeast  Level FlightAware Approximate
02:22AM 33.8328 -118.5453 206° Southwest 275 316 5,600  Level Los Angeles Center
02:23AM 33.6902 -118.5252 134° Southeast  Level FlightAware Approximate
02:23AM 33.7556 -118.5306 171° South 284 327 8,200  Level Los Angeles Center
02:24AM 33.6534 -118.3900 121° Southeast  Level FlightAware Approximate
02:24AM 33.6867 -118.4897 154° Southeast 296 341 10,700  Level Los Angeles Center
02:25AM 33.6333 -118.2519 90° East  Level FlightAware Approximate
02:25AM 33.6550 -118.3719 108° East 324 373 12,400  Level Los Angeles Center
02:26AM 33.6969 -118.2631 65° Northeast 382 440 13,900 1,860 Climbing Los Angeles Center
02:27AM 33.7444 -118.1511 63° Northeast 384 442 16,300 2,640 Climbing Los Angeles Center
02:28AM 33.7972 -118.0414 60° Northeast 387 445 19,300 2,460 Climbing Los Angeles Center
02:29AM 33.8800 -117.9683 36° Northeast 375 432 21,300 1,860 Climbing Los Angeles Center
02:30AM 33.9642 -117.8917 37° Northeast 380 437 23,100 1,620 Climbing Los Angeles Center
02:31AM 34.0517 -117.8119 37° Northeast 393 452 24,600 1,440 Climbing Los Angeles Center
02:32AM 34.1336 -117.7186 43° Northeast 405 466 26,100 1,260 Climbing Los Angeles Center
02:33AM 34.2256 -117.5939 48° Northeast 416 479 27,200 780 Climbing Los Angeles Center
02:34AM 34.3083 -117.4803 49° Northeast 445 512 27,700 780 Climbing Los Angeles Center
02:35AM 34.3939 -117.3636 48° Northeast 462 532 28,800 1,140 Climbing Los Angeles Center
02:36AM 34.4717 -117.2569 48° Northeast 466 536 30,100 1,260 Climbing Los Angeles Center
02:37AM 34.5544 -117.1414 49° Northeast 460 529 31,400 1,380 Climbing Los Angeles Center
02:38AM 34.6372 -117.0275 49° Northeast 455 524 32,900 1,260 Climbing Los Angeles Center
02:39AM 34.7175 -116.9161 49° Northeast 444 511 34,000 540 Climbing Los Angeles Center
02:40AM 34.7972 -116.8053 49° Northeast 441 507 34,000  Level Los Angeles Center
02:41AM 34.8769 -116.6928 49° Northeast 441 507 34,000 60 Level Los Angeles Center
02:42AM 34.9736 -116.5589 49° Northeast 442 509 34,200 420 Climbing Los Angeles Center
02:43AM 35.0603 -116.4525 45° Northeast 442 509 34,900 360 Climbing Los Angeles Center
02:44AM 35.1453 -116.3456 46° Northeast 442 509 35,000  Climbing Los Angeles Center
02:45AM 35.2314 -116.2361 46° Northeast 446 513 35,000  Level Los Angeles Center
02:46AM 35.3200 -116.1261 45° Northeast 444 511 35,000  Level Los Angeles Center
02:47AM 35.4042 -116.0208 46° Northeast 446 513 35,000  Level Los Angeles Center
02:48AM 35.4900 -115.9111 46° Northeast 447 514 35,000  Level Los Angeles Center
02:49AM 35.5783 -115.7994 46° Northeast 444 511 35,000  Level Los Angeles Center
02:50AM 35.6633 -115.6919 46° Northeast 442 509 35,000  Level Los Angeles Center
02:51AM 35.7478 -115.5836 46° Northeast 441 507 35,000  Level Los Angeles Center
02:52AM 35.8497 -115.4564 45° Northeast 437 503 35,000  Level Los Angeles Center
02:53AM 35.9353 -115.3458 46° Northeast 443 510 35,000  Level Los Angeles Center
02:54AM 36.0214 -115.2344 46° Northeast 449 517 35,000  Level Los Angeles Center
02:55AM 36.1036 -115.0808 56° Northeast 456 525 35,000  Level Los Angeles Center
02:56AM 36.1497 -114.9344 69° East 459 528 35,000  Level Los Angeles Center
02:57AM 36.1947 -114.7869 69° East 459 528 35,000  Level Los Angeles Center
02:58AM 36.2397 -114.6394 69° East 460 529 35,000  Level Los Angeles Center
02:59AM 36.2856 -114.4914 69° East 460 529 35,000  Level Los Angeles Center
03:00AM 36.3306 -114.3428 69° East 461 531 35,000  Level Los Angeles Center
03:01AM 36.3758 -114.1942 69° East 461 531 35,000  Level Los Angeles Center
03:02AM 36.4194 -114.0447 70° East 461 531 35,000  Level Los Angeles Center
03:03AM 36.4633 -113.8961 70° East 461 531 35,000  Level Los Angeles Center
03:04AM 36.5078 -113.7469 70° East 461 531 35,000  Level Los Angeles Center
03:05AM 36.5500 -113.6008 70° East 456 525 35,000  Level Los Angeles Center
03:06AM 36.5933 -113.4503 70° East 458 527 35,000  Level Los Angeles Center
03:07AM 36.6381 -113.3000 70° East 463 533 35,000  Level Los Angeles Center
03:08AM 36.6817 -113.1497 70° East 463 533 35,000  Level Los Angeles Center
03:09AM 36.7247 -112.9983 70° East 464 534 35,000  Level Los Angeles Center
03:10AM 36.7678 -112.8475 70° East 464 534 35,000  Level Los Angeles Center
03:11AM 36.8108 -112.6972 70° East 464 534 35,000  Level Los Angeles Center
03:12AM 36.8542 -112.5453 70° East 466 536 35,000  Level Los Angeles Center
03:13AM 36.9064 -112.3617 70° East 469 540 35,000  Level Los Angeles Center
03:14AM 36.9481 -112.2089 71° East 469 540 35,000  Level Los Angeles Center
03:15AM 36.9900 -112.0592 71° East 465 535 35,000  Level Denver Center
03:16AM 37.0331 -111.9064 71° East 467 537 35,000  Level Denver Center
03:17AM 37.0747 -111.7533 71° East 467 537 35,000  Level Denver Center
03:18AM 37.1169 -111.6014 71° East 465 535 35,000  Level Denver Center
03:19AM 37.1581 -111.4481 71° East 466 536 35,000  Level Denver Center
03:20AM 37.1997 -111.2936 71° East 470 541 35,000  Level Denver Center
03:21AM 37.2419 -111.1372 71° East 473 544 35,000  Level Denver Center
03:22AM 37.2842 -110.9808 71° East 476 548 35,000  Level Denver Center
03:23AM 37.3244 -110.8256 72° East 470 541 35,000  Level Denver Center
03:24AM 37.3661 -110.6689 71° East 475 547 35,000  Level Denver Center
03:25AM 37.4164 -110.4803 71° East 475 547 35,000  Level Denver Center
03:26AM 37.4578 -110.3247 71° East 472 543 35,000  Level Denver Center
03:27AM 37.4933 -110.1831 72° East 471 542 35,000  Level Denver Center
03:28AM 37.5394 -110.0086 72° East 470 541 35,000  Level Denver Center
03:30AM 37.5775 -109.8558 73° East 475 547 35,000  Level Denver Center
03:31AM 37.6164 -109.7033 72° East 476 548 35,000  Level Denver Center
03:32AM 37.6542 -109.5533 72° East 469 540 35,000  Level Denver Center
03:33AM 37.6992 -109.3733 72° East 478 550 35,000  Level Denver Center
03:34AM 37.7372 -109.2208 72° East 476 548 35,000  Level Denver Center
03:35AM 37.7753 -109.0656 73° East 481 554 35,000  Level Denver Center
03:37AM 37.8900 -108.7181 67° East 476 548 35,000  Level Denver Center
03:38AM 37.9442 -108.5700 65° Northeast 481 554 35,000  Level Denver Center
03:39AM 38.0083 -108.3964 65° Northeast 485 558 35,000  Level Denver Center
03:40AM 38.0625 -108.2522 64° Northeast 477 549 35,000  Level Denver Center
03:41AM 38.1236 -108.0861 65° Northeast 482 555 35,000  Level Denver Center
03:42AM 38.1761 -107.9422 65° Northeast 475 547 35,000  Level Denver Center
03:43AM 38.2297 -107.7958 65° Northeast 476 548 35,000  Level Denver Center
03:44AM 38.2914 -107.6250 65° Northeast 478 550 35,000  Level Denver Center
03:45AM 38.3439 -107.4769 66° East 479 551 35,000  Level Denver Center
03:46AM 38.3978 -107.3300 65° Northeast 480 552 35,000  Level Denver Center
03:47AM 38.4533 -107.1733 66° East 481 554 35,000  Level Denver Center
03:48AM 38.5086 -107.0178 66° East 485 558 35,000  Level Denver Center
03:49AM 38.5642 -106.8619 65° Northeast 484 557 35,000  Level Denver Center
03:50AM 38.6194 -106.7050 66° East 485 558 35,000  Level Denver Center
03:51AM 38.6744 -106.5481 66° East 485 558 35,000  Level Denver Center
03:52AM 38.7281 -106.3917 66° East 483 556 35,000  Level Denver Center
03:53AM 38.7828 -106.2325 66° East 488 562 35,000  Level Denver Center
03:54AM 38.8425 -106.0600 66° East 487 560 35,000  Level Denver Center
03:55AM 38.8978 -105.8992 66° East 488 562 35,000  Level Denver Center
03:56AM 38.9528 -105.7375 66° East 489 563 35,000  Level Denver Center
03:57AM 39.0069 -105.5722 67° East 494 568 35,000  Level Denver Center
03:58AM 39.0642 -105.4092 66° East 498 573 35,000  Level Denver Center
03:59AM 39.1192 -105.2433 67° East 500 575 35,000  Level Denver Center
04:00AM 39.1747 -105.0781 67° East 498 573 35,000  Level Denver Center
04:01AM 39.2289 -104.9133 67° East 498 573 35,000  Level Denver Center
04:02AM 39.2822 -104.7500 67° East 493 567 35,000  Level Denver Center
04:03AM 39.3358 -104.5864 67° East 496 571 35,000  Level Denver Center
04:04AM 39.3892 -104.4244 67° East 494 568 35,000  Level Denver Center
04:05AM 39.4419 -104.2589 68° East 497 572 35,000  Level Denver Center
04:06AM 39.4950 -104.0961 67° East 491 565 35,000  Level Denver Center
04:07AM 39.5478 -103.9281 68° East 497 572 35,000  Level Denver Center
04:08AM 39.6003 -103.7625 68° East 494 568 35,000  Level Denver Center
04:09AM 39.6525 -103.5969 68° East 492 566 35,000  Level Denver Center
04:10AM 39.7047 -103.4303 68° East 496 571 35,000  Level Denver Center
04:11AM 39.7575 -103.2642 67° East 494 568 35,000  Level Denver Center
04:12AM 39.8089 -103.0958 68° East 498 573 35,000  Level Denver Center
04:13AM 39.8608 -102.9278 68° East 497 572 35,000  Level Denver Center
04:14AM 39.9125 -102.7589 68° East 498 573 35,000  Level Denver Center
04:15AM 39.9672 -102.5814 68° East 499 574 35,000  Level Denver Center
04:16AM 40.0150 -102.4211 69° East 497 572 35,000  Level Denver Center
04:17AM 40.0636 -102.2589 69° East 501 577 35,000  Level Denver Center
04:18AM 40.1186 -102.0725 69° East 495 570 35,000  Level Denver Center
04:19AM 40.1669 -101.9117 68° East 495 570 35,000  Level Denver Center
04:20AM 40.2150 -101.7503 69° East 498 573 35,000  Level Denver Center
04:21AM 40.2703 -101.5606 69° East 500 575 35,000  Level Denver Center
04:22AM 40.3175 -101.3983 69° East 499 574 35,000  Level Denver Center
04:23AM 40.3628 -101.2392 69° East 490 564 35,000  Level Denver Center
04:24AM 40.4142 -101.0600 69° East 475 547 35,100 300 Climbing Denver Center
04:25AM 40.4592 -100.9044 69° East 478 550 35,700 720 Climbing Denver Center
04:26AM 40.5164 -100.7561 63° Northeast 480 552 36,600 600 Climbing Denver Center
04:27AM 40.5803 -100.5822 64° Northeast 479 551 37,000 180 Climbing Denver Center
04:28AM 40.6367 -100.4308 64° Northeast 487 560 37,000  Level Denver Center
04:29AM 40.6936 -100.2764 64° Northeast 492 566 37,000  Level Denver Center
04:30AM 40.7594 -100.0947 64° Northeast 495 570 37,000  Level Denver Center
04:31AM 40.8164 -99.9381 64° Northeast 496 571 37,000  Level Denver Center
04:32AM 40.8683 -99.7942 64° Northeast 495 570 37,000  Level Denver Center
04:33AM 40.9286 -99.6289 64° Northeast 496 571 37,000  Level Denver Center
04:34AM 40.9992 -99.4306 65° Northeast 496 571 37,000  Level Denver Center
04:35AM 41.0583 -99.2656 65° Northeast 495 570 37,000  Level Denver Center
04:36AM 41.1167 -99.1008 65° Northeast 494 568 37,000  Level Denver Center
04:37AM 41.1375 -99.0419 65° Northeast 493 567 37,000  Level Minneapolis Center
04:37AM 41.1647 -98.9358 71° East 497 572 37,000  Level Denver Center
04:38AM 41.1747 -98.8661 79° East 494 568 37,000  Level Minneapolis Center
04:39AM 41.2081 -98.6861 76° East 500 575 37,000  Level Minneapolis Center
04:40AM 41.2417 -98.5069 76° East 501 577 37,000  Level Minneapolis Center
04:41AM 41.2725 -98.3400 76° East 499 574 37,000  Level Minneapolis Center
04:42AM 41.3044 -98.1594 77° East 501 577 37,000  Level Minneapolis Center
04:43AM 41.3400 -97.9656 76° East 505 581 37,000  Level Minneapolis Center
04:44AM 41.3736 -97.7833 76° East 507 583 37,000  Level Minneapolis Center
04:45AM 41.4056 -97.6019 77° East 505 581 37,000  Level Minneapolis Center
04:46AM 41.4381 -97.4219 76° East 501 577 37,000  Level Minneapolis Center
04:47AM 41.4686 -97.2419 77° East 500 575 37,000  Level Minneapolis Center
04:48AM 41.5006 -97.0611 77° East 499 574 37,000  Level Minneapolis Center
04:49AM 41.5319 -96.8819 77° East 498 573 37,000  Level Minneapolis Center
04:50AM 41.5614 -96.7003 78° East 499 574 37,000  Level Minneapolis Center
04:51AM 41.5917 -96.5189 77° East 498 573 37,000  Level Minneapolis Center
04:52AM 41.6244 -96.3122 78° East 503 579 37,000  Level Minneapolis Center
04:53AM 41.6514 -96.1483 78° East 506 582 37,000  Level Minneapolis Center
04:54AM 41.6831 -95.9633 77° East 505 581 37,000  Level Minneapolis Center
04:55AM 41.7125 -95.7778 78° East 505 581 37,000  Level Minneapolis Center
04:56AM 41.7414 -95.5928 78° East 506 582 37,000  Level Minneapolis Center
04:57AM 41.7764 -95.3711 78° East 505 581 37,000  Level Minneapolis Center
04:58AM 41.8050 -95.1864 78° East 506 582 37,000  Level Minneapolis Center
04:59AM 41.8328 -95.0008 79° East 506 582 37,000  Level Minneapolis Center
05:00AM 41.8594 -94.8175 79° East 502 578 37,000  Level Minneapolis Center
05:01AM 41.8872 -94.6358 78° East 498 573 37,000  Level Minneapolis Center
05:02AM 41.9136 -94.4533 79° East 498 573 37,000  Level Minneapolis Center
05:03AM 41.9408 -94.2719 79° East 496 571 37,000  Level Minneapolis Center
05:04AM 41.9678 -94.0894 79° East 497 572 37,000  Level Minneapolis Center
05:05AM 41.9942 -93.9064 79° East 497 572 37,000  Level Minneapolis Center
05:06AM 42.0206 -93.7222 79° East 500 575 37,000  Level Minneapolis Center
05:07AM 42.0450 -93.5417 80° East 497 572 37,000  Level Minneapolis Center
05:08AM 42.0700 -93.3611 79° East 497 572 37,000  Level Minneapolis Center
05:09AM 42.0881 -93.1814 82° East 492 566 37,000  Level Minneapolis Center
05:10AM 42.1017 -93.0000 84° East 492 566 37,000  Level Minneapolis Center
05:11AM 42.1169 -92.8203 83° East 490 564 37,000  Level Minneapolis Center
05:12AM 42.1331 -92.6042 84° East 489 563 37,000  Level Minneapolis Center
05:13AM 42.1475 -92.4253 84° East 489 563 37,000  Level Minneapolis Center
05:14AM 42.1606 -92.2442 84° East 490 564 37,000  Level Minneapolis Center
05:15AM 42.1742 -92.0633 84° East 491 565 37,000  Level Minneapolis Center
05:16AM 42.1811 -91.9511 85° East 494 568 37,000  Level Chicago Center
05:17AM 42.1944 -91.7694 84° East 494 568 37,000  Level Chicago Center
05:18AM 42.2072 -91.5881 85° East 495 570 37,000  Level Chicago Center
05:19AM 42.2217 -91.3683 85° East 497 572 37,000  Level Chicago Center
05:20AM 42.2336 -91.1883 85° East 495 570 37,000  Level Chicago Center
05:21AM 42.2450 -91.0069 85° East 492 566 37,000  Level Chicago Center
05:22AM 42.2553 -90.8278 86° East 489 563 37,000 -1,080 Level Chicago Center
05:23AM 42.2669 -90.6447 85° East 496 571 34,900 -2,580 Descending Chicago Center
05:24AM 42.2783 -90.4636 85° East 493 567 31,900 -2,880 Descending Chicago Center
05:25AM 42.2875 -90.2817 86° East 493 567 29,200 -2,580 Descending Chicago Center
05:26AM 42.2972 -90.1056 86° East 478 550 26,800 -2,340 Descending Chicago Center
05:27AM 42.3075 -89.9364 85° East 456 525 24,500 -2,280 Descending Chicago Center
05:28AM 42.3156 -89.7661 86° East 443 510 22,300 -2,160 Descending Chicago Center
05:29AM 42.3236 -89.6061 86° East 430 495 20,200 -2,100 Descending Chicago Center
05:30AM 42.3306 -89.4558 86° East 407 468 18,100 -2,160 Descending Chicago Center
05:31AM 42.3381 -89.3064 86° East 400 460 15,900 -2,040 Descending Chicago Center
05:32AM 42.3456 -89.1622 86° East 389 448 14,100 -900 Descending Chicago Center
05:33AM 42.3517 -89.0244 87° East 372 428 14,100 -360 Level Chicago Center
05:34AM 42.3575 -88.8872 87° East 366 421 13,400 -1,500 Descending Chicago Center
05:35AM 42.3644 -88.7322 86° East 356 410 11,100 -1,620 Descending Chicago Center
05:36AM 42.3692 -88.6056 87° East 342 394 10,200 -1,020 Descending Chicago Center
05:37AM 42.3358 -88.5044 114° Southeast 305 351 9,100 -1,200 Descending Chicago Center
05:38AM 42.2964 -88.4222 123° Southeast 293 337 7,900 -1,380 Descending Chicago Center
05:39AM 42.2539 -88.3300 122° Southeast 292 336 6,400 -1,380 Descending Chicago Center
05:40AM 42.2122 -88.2394 122° Southeast 287 330 5,200 -1,200 Descending Chicago Center
05:41AM 42.1714 -88.1528 122° Southeast 280 322 4,000 -600 Descending Chicago Center
05:42AM 42.1267 -88.0881 133° Southeast 248 285 4,000 -240 Level Chicago Center
05:42AM 42.1000 -88.0667 149° Southeast 229 264 3,700 -1,200 Descending Chicago TRACON
05:43AM 42.0667 -88.0167 132° Southeast 205 236 2,500 -1,200 Descending Chicago TRACON